Fort Wayne International Airport Fort Wayne US
ICAO: KFWA
IATA: FWA
Category: Large
Scheduled Services: Yes

Elevation: 814 ft
TransAlt. 18000 ft.

Airport Communications:
APP/DEP:127.2
ATIS:121.25
CLNC DEL:124.75
GND:121.9
122FW COMD POST OPS:138.4
TERRE HAUTE RDO:122.2
TWR:119.1
UNICOM:122.95

KFWA Zoom In..

Runways:

(A) RW 05 length 11981 ft width 150 ft
ILS 111.90 / hdg 47

(B) RW 09 length 4001 ft width 75 ft
---- / hdg 93

(C) RW 14 length 8002 ft width 150 ft
---- / hdg 138

(D) RW 23 length 11981 ft width 150 ft
---- / hdg 227

(E) RW 27 length 4001 ft width 75 ft
---- / hdg 273

(F) RW 32 length 8002 ft width 150 ft
ILS 109.90 / hdg 318

Location; KFWA
Day. 24 / Time. 01.54 Zulu
* Altimeter: 30.03
* Temperature: -01° c. -30.2°f.
* Wind from: 290° Speed 14 kn.
Dewpoint: -03° c.
Visibility: 10 Statute Miles.
Clouds: Overcast 1600 ft.

KFWA 240154Z 29014KT 10SM OVC016 M01/M03 A3003 RMK AO2 SLP177 T10061028 $


Wind From 290°
Speed 14 kn.

YouTube Music Video
 
jpsmedia.com for Web Design  worldairports.se 2018   terms of use